Time;durP1;ratioP1;P1;durP2;ratioP2;P2;SDS_P1;SDS_P2;PMS_P1;PMS_P2;Temp;Humidity;BMP_temperature;BMP_pressure;BME280_temperature;BME280_humidity;BME280_pressure;Samples;Min_cycle;Max_cycle;Signal;HPM_P1;HPM_P2
2020/12/24 00:00:34;;;;;;;3.65;2.80;;;8.10;99.90;;;;;;5009627;28;20200;-28
2020/12/24 00:03:05;;;;;;;3.58;2.83;;;8.00;99.90;;;;;;5001191;28;20194;-28
2020/12/24 00:05:35;;;;;;;9.50;4.90;;;8.00;99.90;;;;;;5011265;28;20544;-28
2020/12/24 00:08:05;;;;;;;3.72;2.45;;;8.00;99.90;;;;;;5007572;28;20196;-27
2020/12/24 00:10:37;;;;;;;14.85;6.93;;;7.90;99.90;;;;;;4999132;28;20231;-27
2020/12/24 00:13:07;;;;;;;5.80;3.53;;;7.80;99.90;;;;;;4999354;28;20617;-27
2020/12/24 00:15:37;;;;;;;3.22;2.80;;;7.80;99.90;;;;;;5010314;28;20203;-27
2020/12/24 00:18:19;;;;;;;3.30;2.53;;;7.80;99.90;;;;;;5010809;28;20199;-27
2020/12/24 00:20:49;;;;;;;4.93;2.80;;;7.70;99.90;;;;;;4996584;28;20196;-27
2020/12/24 00:23:20;;;;;;;4.63;2.45;;;7.70;99.90;;;;;;4998801;28;20551;-27
2020/12/24 00:25:51;;;;;;;2.45;2.15;;;7.70;99.90;;;;;;5007772;28;20207;-27
2020/12/24 00:28:21;;;;;;;3.53;2.70;;;7.80;99.90;;;;;;5008741;28;20194;-27
2020/12/24 00:30:51;;;;;;;6.78;3.70;;;7.80;99.90;;;;;;5006334;28;20663;-27
2020/12/24 00:33:22;;;;;;;4.18;3.00;;;7.80;99.90;;;;;;5007315;28;20215;-26
2020/12/24 00:35:52;;;;;;;3.47;2.90;;;7.70;99.90;;;;;;5005539;28;20542;-28
2020/12/24 00:38:22;;;;;;;3.05;2.75;;;7.60;99.90;;;;;;5001033;28;20199;-27
2020/12/24 00:40:54;;;;;;;3.80;3.47;;;7.60;99.90;;;;;;5009567;28;20667;-27
2020/12/24 00:43:24;;;;;;;3.60;2.45;;;7.60;99.90;;;;;;5010187;28;20196;-28
2020/12/24 00:45:54;;;;;;;3.15;2.83;;;7.60;99.90;;;;;;5010287;28;20203;-28
2020/12/24 00:48:37;;;;;;;2.83;2.60;;;7.50;99.90;;;;;;5010334;28;20210;-28
2020/12/24 00:51:07;;;;;;;5.35;2.60;;;7.50;99.90;;;;;;5004914;28;20223;-28
2020/12/24 00:53:37;;;;;;;4.43;3.03;;;7.50;99.90;;;;;;5010287;28;20247;-28
2020/12/24 00:56:10;;;;;;;2.75;2.55;;;7.50;99.90;;;;;;5009795;28;20233;-28
2020/12/24 00:58:40;;;;;;;5.07;3.40;;;7.40;99.90;;;;;;5009894;28;20191;-27
2020/12/24 01:01:11;;;;;;;5.30;3.20;;;7.40;99.90;;;;;;5008727;28;20654;-27
2020/12/24 01:03:41;;;;;;;5.40;3.53;;;7.30;99.90;;;;;;5001222;28;20541;-27
2020/12/24 01:06:11;;;;;;;3.33;3.03;;;7.20;99.90;;;;;;5010086;28;20214;-28
2020/12/24 01:08:41;;;;;;;2.85;2.70;;;7.10;99.90;;;;;;5010376;28;20214;-27
2020/12/24 01:11:12;;;;;;;4.57;2.70;;;7.10;99.90;;;;;;5009523;28;20285;-27
2020/12/24 01:13:43;;;;;;;3.08;2.63;;;7.10;99.90;;;;;;5009617;28;20222;-27
2020/12/24 01:16:13;;;;;;;4.25;3.60;;;7.10;99.90;;;;;;5007608;28;20234;-27
2020/12/24 01:18:59;;;;;;;4.35;3.15;;;7.10;99.90;;;;;;5010282;28;20219;-27
2020/12/24 01:21:29;;;;;;;3.53;3.22;;;7.00;99.90;;;;;;5009875;28;20310;-27
2020/12/24 01:23:59;;;;;;;3.10;2.80;;;7.00;99.90;;;;;;5008408;28;20654;-27
2020/12/24 01:26:31;;;;;;;4.47;3.50;;;7.00;99.90;;;;;;5007766;28;20222;-28
2020/12/24 01:29:01;;;;;;;4.40;3.80;;;6.90;99.90;;;;;;5006413;28;20199;-28
2020/12/24 01:31:31;;;;;;;4.57;3.60;;;6.90;99.90;;;;;;4999365;28;20195;-27
2020/12/24 01:34:01;;;;;;;5.70;5.18;;;6.80;99.90;;;;;;5001093;28;20234;-27
2020/12/24 01:36:31;;;;;;;3.35;3.03;;;6.80;99.90;;;;;;5007105;28;20211;-27
2020/12/24 01:39:01;;;;;;;3.90;3.25;;;6.70;99.90;;;;;;5009440;28;20728;-27
2020/12/24 01:41:32;;;;;;;3.90;3.40;;;6.70;99.90;;;;;;4995917;28;20204;-27
2020/12/24 01:44:02;;;;;;;3.92;3.30;;;6.70;99.90;;;;;;5009115;28;20283;-27
2020/12/24 01:46:33;;;;;;;3.28;2.72;;;6.80;99.90;;;;;;5008912;28;20194;-26
2020/12/24 01:49:17;;;;;;;4.03;3.05;;;6.90;99.90;;;;;;5009682;28;20588;-26
2020/12/24 01:51:53;;;;;;;3.20;2.72;;;6.90;99.90;;;;;;5009787;28;20257;-30
2020/12/24 01:54:25;;;;;;;3.30;2.65;;;6.90;99.90;;;;;;5009492;28;20195;-26
2020/12/24 01:56:56;;;;;;;3.50;3.03;;;7.00;99.90;;;;;;5008529;28;20676;-26
2020/12/24 01:59:26;;;;;;;3.20;2.90;;;7.00;99.90;;;;;;5007267;28;20188;-26
2020/12/24 02:01:57;;;;;;;3.47;3.17;;;7.10;99.90;;;;;;4997257;28;20188;-26
2020/12/24 02:04:27;;;;;;;2.63;2.30;;;7.10;99.90;;;;;;5009554;28;20257;-26
2020/12/24 02:06:57;;;;;;;4.10;3.30;;;7.10;99.90;;;;;;5009283;28;20199;-27
2020/12/24 02:09:27;;;;;;;2.63;2.42;;;7.10;99.90;;;;;;5009653;28;20754;-26
2020/12/24 02:12:00;;;;;;;3.13;2.60;;;7.10;99.90;;;;;;5008897;28;20560;-26
2020/12/24 02:14:30;;;;;;;3.58;3.28;;;7.10;99.90;;;;;;5003558;28;20199;-26
2020/12/24 02:17:00;;;;;;;4.90;2.97;;;7.10;99.90;;;;;;5000362;28;20199;-26
2020/12/24 02:19:36;;;;;;;5.35;2.70;;;7.10;99.90;;;;;;5009165;28;20203;-26
2020/12/24 02:22:08;;;;;;;4.43;2.58;;;7.10;99.90;;;;;;5009441;28;20206;-27
2020/12/24 02:24:42;;;;;;;3.28;2.78;;;7.00;99.90;;;;;;5006033;28;20187;-25
2020/12/24 02:27:13;;;;;;;2.47;2.03;;;7.00;99.90;;;;;;5000830;28;20196;-26
2020/12/24 02:29:43;;;;;;;2.15;1.75;;;7.00;99.90;;;;;;5008569;28;20687;-26
2020/12/24 02:32:13;;;;;;;3.17;2.35;;;7.00;99.90;;;;;;4990500;28;20235;-27
2020/12/24 02:34:43;;;;;;;3.10;2.80;;;7.10;99.90;;;;;;4993822;28;20281;-26
2020/12/24 02:37:14;;;;;;;1.85;1.75;;;7.10;99.90;;;;;;5008924;28;20254;-26
2020/12/24 02:39:46;;;;;;;6.35;2.75;;;7.10;99.90;;;;;;5004709;28;20539;-27
2020/12/24 02:42:17;;;;;;;2.05;1.85;;;7.10;99.90;;;;;;4998016;28;20211;-27
2020/12/24 02:44:47;;;;;;;2.15;2.05;;;7.10;99.90;;;;;;5005242;28;20208;-27
2020/12/24 02:47:17;;;;;;;2.63;2.25;;;7.00;99.90;;;;;;5004849;28;20199;-27
2020/12/24 02:49:58;;;;;;;1.65;1.55;;;7.00;99.90;;;;;;4997614;28;20628;-27
2020/12/24 02:52:29;;;;;;;2.17;1.98;;;7.00;99.90;;;;;;5011820;28;20667;-27
2020/12/24 02:55:00;;;;;;;2.22;1.85;;;7.00;99.90;;;;;;5012210;28;20501;-27
2020/12/24 02:57:30;;;;;;;1.92;1.83;;;7.00;99.90;;;;;;5012208;28;20199;-27
2020/12/24 03:00:09;;;;;;;2.47;2.33;;;6.90;99.90;;;;;;5012474;28;20602;-27
2020/12/24 03:02:39;;;;;;;2.10;2.00;;;6.90;99.90;;;;;;5011688;28;20242;-27
2020/12/24 03:05:09;;;;;;;2.28;1.92;;;6.90;99.90;;;;;;5001586;28;20222;-27
2020/12/24 03:07:41;;;;;;;4.78;2.00;;;6.80;99.90;;;;;;5010335;28;20188;-27
2020/12/24 03:10:11;;;;;;;2.88;2.13;;;6.80;99.90;;;;;;5008722;28;20215;-27
2020/12/24 03:12:41;;;;;;;1.77;1.65;;;6.80;99.90;;;;;;5007393;28;20282;-27
2020/12/24 03:15:12;;;;;;;3.15;2.47;;;6.80;99.90;;;;;;5009656;28;20276;-27
2020/12/24 03:17:42;;;;;;;3.97;2.08;;;6.80;99.90;;;;;;5011059;28;20206;-27
2020/12/24 03:20:19;;;;;;;2.17;1.85;;;6.90;99.90;;;;;;5010196;28;20667;-27
2020/12/24 03:22:50;;;;;;;3.90;1.95;;;6.80;99.90;;;;;;5012201;28;20211;-27
2020/12/24 03:25:20;;;;;;;1.95;1.85;;;6.80;99.90;;;;;;5007626;28;20531;-27
2020/12/24 03:27:51;;;;;;;2.00;1.90;;;6.80;99.90;;;;;;5009342;28;20207;-27
2020/12/24 03:30:21;;;;;;;2.38;1.58;;;6.80;99.90;;;;;;5012446;28;20214;-27
2020/12/24 03:32:51;;;;;;;4.60;2.00;;;6.80;99.90;;;;;;5011269;28;20226;-27
2020/12/24 03:35:21;;;;;;;1.70;1.60;;;6.70;99.90;;;;;;5006555;28;20234;-27
2020/12/24 03:37:52;;;;;;;2.50;1.60;;;6.70;99.90;;;;;;4992859;28;20647;-27
2020/12/24 03:40:22;;;;;;;1.52;1.42;;;6.70;99.90;;;;;;4992452;28;20568;-27
2020/12/24 03:42:52;;;;;;;1.90;1.80;;;6.80;99.90;;;;;;4992022;28;20297;-27
2020/12/24 03:45:22;;;;;;;2.00;1.63;;;6.80;99.90;;;;;;5006429;28;20199;-27
2020/12/24 03:47:52;;;;;;;2.75;1.60;;;6.80;99.90;;;;;;5011913;28;20211;-27
2020/12/24 03:50:37;;;;;;;1.80;1.70;;;6.70;99.90;;;;;;5011517;28;20267;-27
2020/12/24 03:53:08;;;;;;;1.48;1.38;;;6.70;99.90;;;;;;5011225;28;20234;-27
2020/12/24 03:55:38;;;;;;;3.35;1.80;;;6.60;99.90;;;;;;5011360;28;20592;-27
2020/12/24 03:58:08;;;;;;;2.05;1.92;;;6.70;99.90;;;;;;5009060;28;20192;-27
2020/12/24 04:00:39;;;;;;;1.77;1.67;;;6.60;99.90;;;;;;5009950;28;20195;-27
2020/12/24 04:03:09;;;;;;;1.60;1.50;;;6.70;99.90;;;;;;5004585;28;20199;-26
2020/12/24 04:05:40;;;;;;;1.85;1.65;;;6.60;99.90;;;;;;5011273;28;20199;-26
2020/12/24 04:08:11;;;;;;;2.85;1.60;;;6.60;99.90;;;;;;5010915;28;20261;-27
2020/12/24 04:10:41;;;;;;;2.88;1.75;;;6.60;99.90;;;;;;5011031;28;20785;-27
2020/12/24 04:13:11;;;;;;;2.08;1.80;;;6.60;99.90;;;;;;5008897;28;20229;-26
2020/12/24 04:15:41;;;;;;;2.10;1.40;;;6.60;99.90;;;;;;5010942;28;20557;-27
2020/12/24 04:18:11;;;;;;;1.80;1.70;;;6.60;99.90;;;;;;5011290;28;20635;-26
2020/12/24 04:20:58;;;;;;;1.75;1.60;;;6.60;99.90;;;;;;5011189;28;20193;-26
2020/12/24 04:23:29;;;;;;;2.38;1.70;;;6.60;99.90;;;;;;5010647;28;20199;-26
2020/12/24 04:25:59;;;;;;;1.60;1.50;;;6.60;99.90;;;;;;5002539;28;20510;-27
2020/12/24 04:28:29;;;;;;;2.45;1.48;;;6.50;99.90;;;;;;5009580;28;20206;-27
2020/12/24 04:30:59;;;;;;;2.08;1.48;;;6.40;99.90;;;;;;5010471;28;20218;-27
2020/12/24 04:33:30;;;;;;;1.73;1.50;;;6.40;99.90;;;;;;5008495;28;20246;-27
2020/12/24 04:36:00;;;;;;;2.55;1.80;;;6.50;99.90;;;;;;5010257;28;20611;-26
2020/12/24 04:38:31;;;;;;;3.60;1.38;;;6.50;99.90;;;;;;5010446;28;20252;-27
2020/12/24 04:41:02;;;;;;;2.80;1.92;;;6.40;99.90;;;;;;5005274;28;20202;-26
2020/12/24 04:43:32;;;;;;;1.30;1.20;;;6.50;99.90;;;;;;5005491;28;20199;-26
2020/12/24 04:46:03;;;;;;;2.45;1.40;;;6.40;99.90;;;;;;5008305;28;20202;-27
2020/12/24 04:48:33;;;;;;;3.60;1.02;;;6.40;99.90;;;;;;5011048;28;20188;-26
2020/12/24 04:51:20;;;;;;;1.00;1.00;;;6.40;99.90;;;;;;5010984;28;20333;-26
2020/12/24 04:53:51;;;;;;;1.30;1.05;;;6.40;99.90;;;;;;5010914;28;20278;-26
2020/12/24 04:56:21;;;;;;;1.95;1.48;;;6.40;99.90;;;;;;5010517;28;20218;-26
2020/12/24 04:58:52;;;;;;;2.38;1.58;;;6.40;99.90;;;;;;5009518;28;20238;-25
2020/12/24 05:01:23;;;;;;;1.45;1.13;;;6.30;99.90;;;;;;4992267;28;20519;-26
2020/12/24 05:03:57;;;;;;;2.15;1.25;;;6.40;99.90;;;;;;4991729;28;20298;-27
2020/12/24 05:06:27;;;;;;;1.67;1.17;;;6.40;99.90;;;;;;4997848;28;20188;-26
2020/12/24 05:08:59;;;;;;;3.00;1.35;;;6.40;99.70;;;;;;4990663;28;20266;-27
2020/12/24 05:11:30;;;;;;;2.03;1.05;;;6.40;99.90;;;;;;5001679;28;20257;-27
2020/12/24 05:14:17;;;;;;;1.30;1.20;;;6.50;99.80;;;;;;5008487;28;20231;-26
2020/12/24 05:16:58;;;;;;;1.20;1.10;;;6.50;99.90;;;;;;5005512;28;20215;-27
2020/12/24 05:19:30;;;;;;;2.25;1.65;;;6.50;99.40;;;;;;5010245;28;20253;-26
2020/12/24 05:22:10;;;;;;;1.48;1.35;;;6.50;99.30;;;;;;5008158;28;20600;-27
2020/12/24 05:24:42;;;;;;;3.00;1.05;;;6.50;99.70;;;;;;5004779;28;20222;-27
2020/12/24 05:27:15;;;;;;;2.85;1.38;;;6.50;99.50;;;;;;5006710;28;20249;-27
2020/12/24 05:29:46;;;;;;;1.02;1.00;;;6.50;99.50;;;;;;5009399;28;20210;-27
2020/12/24 05:32:16;;;;;;;1.25;1.15;;;6.40;99.80;;;;;;5005476;28;20629;-26
2020/12/24 05:34:47;;;;;;;1.67;1.10;;;6.40;99.50;;;;;;5007918;28;20226;-27
2020/12/24 05:37:17;;;;;;;2.08;1.38;;;6.40;99.90;;;;;;5006690;28;20728;-26
2020/12/24 05:39:50;;;;;;;1.95;1.30;;;6.40;99.80;;;;;;5006333;28;20262;-26
2020/12/24 05:42:21;;;;;;;1.80;1.13;;;6.40;99.50;;;;;;5009566;28;20226;-27
2020/12/24 05:44:51;;;;;;;1.70;1.50;;;6.40;99.80;;;;;;5009609;28;20206;-27
2020/12/24 05:47:30;;;;;;;3.67;1.60;;;6.30;99.90;;;;;;5005609;28;20219;-26
2020/12/24 05:50:00;;;;;;;5.35;1.50;;;6.30;99.90;;;;;;4999771;28;20227;-26
2020/12/24 05:52:30;;;;;;;1.75;1.50;;;6.20;99.90;;;;;;5005843;28;20203;-26
2020/12/24 05:55:01;;;;;;;1.58;1.33;;;6.20;99.90;;;;;;5009339;28;20195;-26
2020/12/24 05:57:36;;;;;;;1.25;1.15;;;6.20;99.90;;;;;;5007923;28;20643;-27
2020/12/24 06:00:06;;;;;;;2.22;2.03;;;6.20;99.90;;;;;;4991142;28;20199;-27
2020/12/24 06:02:47;;;;;;;1.70;1.60;;;6.20;99.90;;;;;;4990230;28;20250;-26
2020/12/24 06:05:31;;;;;;;1.30;1.15;;;6.20;99.90;;;;;;4990149;28;20203;-26
2020/12/24 06:08:17;;;;;;;3.03;1.58;;;6.20;99.90;;;;;;4994884;28;20199;-26
2020/12/24 06:10:59;;;;;;;1.85;1.33;;;6.10;99.90;;;;;;5008945;28;20233;-26
2020/12/24 06:13:42;;;;;;;1.80;1.40;;;6.10;99.90;;;;;;5009377;28;20219;-27
2020/12/24 06:16:13;;;;;;;1.48;1.25;;;6.00;99.90;;;;;;4998014;28;20198;-27
2020/12/24 06:18:44;;;;;;;1.63;1.50;;;6.00;99.90;;;;;;5005862;28;20231;-26
2020/12/24 06:21:17;;;;;;;1.33;1.20;;;5.90;99.90;;;;;;5007529;28;20275;-26
2020/12/24 06:23:55;;;;;;;1.75;1.00;;;6.00;99.90;;;;;;5009044;28;20203;-27
2020/12/24 06:26:30;;;;;;;1.45;1.35;;;6.00;99.90;;;;;;5006350;28;20269;-27
2020/12/24 06:29:03;;;;;;;2.67;1.13;;;6.00;99.90;;;;;;5005907;28;20524;-27
2020/12/24 06:31:35;;;;;;;2.25;1.27;;;6.00;99.90;;;;;;5006884;28;20196;-26
2020/12/24 06:34:23;;;;;;;1.90;1.20;;;6.00;99.90;;;;;;5012270;28;20226;-27
2020/12/24 06:36:53;;;;;;;1.23;1.13;;;6.00;99.90;;;;;;5012867;28;20226;-27
2020/12/24 06:39:47;;;;;;;1.50;1.15;;;6.00;99.90;;;;;;5010539;28;20619;-27
2020/12/24 06:42:52;;;;;;;2.75;1.30;;;5.90;99.90;;;;;;4981705;28;20203;-27
2020/12/24 06:45:39;;;;;;;1.75;1.65;;;5.80;99.90;;;;;;4947970;29;20197;-27
2020/12/24 06:48:21;;;;;;;1.15;1.05;;;5.70;99.90;;;;;;4944416;29;20194;-27
2020/12/24 06:50:53;;;;;;;4.75;1.60;;;5.80;99.90;;;;;;4991923;28;20266;-27
2020/12/24 06:53:27;;;;;;;1.70;1.20;;;5.80;99.90;;;;;;5008072;28;20211;-27
2020/12/24 06:56:26;;;;;;;2.75;1.30;;;5.80;99.90;;;;;;5003279;28;20261;-27
2020/12/24 06:58:59;;;;;;;1.77;1.33;;;5.70;99.90;;;;;;5005091;28;20856;-27
2020/12/24 07:01:31;;;;;;;1.40;1.25;;;5.70;99.90;;;;;;5008258;28;20244;-27
2020/12/24 07:04:03;;;;;;;2.38;1.50;;;5.70;99.90;;;;;;5008588;28;20199;-27
2020/12/24 07:06:53;;;;;;;1.60;1.50;;;5.70;99.90;;;;;;5005894;28;20290;-27
2020/12/24 07:09:43;;;;;;;2.15;1.25;;;5.70;99.90;;;;;;5011272;28;20187;-26
2020/12/24 07:12:34;;;;;;;1.35;1.20;;;5.70;99.90;;;;;;5010847;28;20246;-26
2020/12/24 07:15:24;;;;;;;1.13;1.02;;;5.60;99.90;;;;;;5012483;28;20212;-26
2020/12/24 07:17:57;;;;;;;1.23;1.13;;;5.50;99.90;;;;;;5011411;28;20266;-26
2020/12/24 07:20:35;;;;;;;3.88;1.00;;;5.50;99.90;;;;;;5003762;28;20187;-25
2020/12/24 07:23:06;;;;;;;1.25;0.73;;;5.60;99.90;;;;;;5012060;28;20203;-26
2020/12/24 07:25:37;;;;;;;2.10;0.90;;;5.60;99.90;;;;;;5011190;28;20241;-27
2020/12/24 07:28:16;;;;;;;1.00;0.90;;;5.60;99.90;;;;;;5011581;28;20192;-26
2020/12/24 07:31:00;;;;;;;5.25;1.50;;;5.60;99.90;;;;;;5012353;28;20595;-28
2020/12/24 07:33:30;;;;;;;1.80;1.40;;;5.60;99.90;;;;;;5011903;28;20219;-28
2020/12/24 07:36:01;;;;;;;1.50;1.40;;;5.60;99.90;;;;;;5012096;28;20265;-28
2020/12/24 07:38:32;;;;;;;1.15;0.95;;;5.60;99.90;;;;;;5011944;28;20245;-28
2020/12/24 07:41:02;;;;;;;2.47;0.80;;;5.60;99.90;;;;;;5011357;28;20199;-28
2020/12/24 07:43:32;;;;;;;1.45;1.20;;;5.50;99.90;;;;;;5011657;28;20270;-26
2020/12/24 07:46:09;;;;;;;2.75;1.15;;;5.50;99.90;;;;;;5012041;28;20233;-27
2020/12/24 07:48:39;;;;;;;1.42;0.95;;;5.50;99.90;;;;;;5011748;28;20195;-27
2020/12/24 07:51:10;;;;;;;2.28;1.05;;;5.40;99.90;;;;;;5011688;28;20211;-27
2020/12/24 07:53:40;;;;;;;1.40;1.30;;;5.40;99.90;;;;;;5011147;28;20231;-28
2020/12/24 07:56:13;;;;;;;2.17;1.17;;;5.40;99.90;;;;;;5011214;28;20188;-27
2020/12/24 07:58:45;;;;;;;3.20;0.93;;;5.40;99.90;;;;;;5011328;28;20199;-27
2020/12/24 08:01:21;;;;;;;3.38;0.90;;;5.40;99.90;;;;;;5011496;28;20222;-27
2020/12/24 08:04:01;;;;;;;1.25;1.00;;;5.50;99.90;;;;;;5011588;28;20252;-27
2020/12/24 08:06:31;;;;;;;1.30;0.88;;;5.60;99.90;;;;;;5011386;28;20742;-27
2020/12/24 08:09:12;;;;;;;0.70;0.70;;;5.60;99.90;;;;;;5011506;28;20345;-27
2020/12/24 08:11:43;;;;;;;1.95;1.27;;;5.60;99.90;;;;;;5010601;28;20246;-27
2020/12/24 08:14:13;;;;;;;1.45;0.80;;;5.60;99.90;;;;;;5011027;28;20298;-27
2020/12/24 08:16:44;;;;;;;2.88;1.30;;;5.70;99.90;;;;;;5011068;28;20191;-26
2020/12/24 08:19:24;;;;;;;1.30;1.00;;;5.70;99.90;;;;;;5011269;28;20187;-27
2020/12/24 08:22:01;;;;;;;0.65;0.65;;;5.70;99.90;;;;;;4998762;28;20203;-26
2020/12/24 08:24:35;;;;;;;1.45;1.13;;;5.70;99.90;;;;;;5004778;28;20250;-27
2020/12/24 08:27:06;;;;;;;1.50;0.55;;;5.70;99.90;;;;;;4991381;28;20231;-26
2020/12/24 08:29:38;;;;;;;3.17;1.35;;;5.70;99.90;;;;;;4992242;28;20203;-27
2020/12/24 08:32:10;;;;;;;1.00;1.00;;;5.70;99.90;;;;;;4991608;28;20203;-26
2020/12/24 08:34:41;;;;;;;2.83;1.40;;;5.60;99.90;;;;;;4991342;28;20224;-27
2020/12/24 08:37:12;;;;;;;1.05;0.95;;;5.60;99.90;;;;;;4995540;28;20196;-27
2020/12/24 08:39:42;;;;;;;1.25;1.15;;;5.60;99.90;;;;;;5010639;28;20199;-27
2020/12/24 08:42:19;;;;;;;0.82;0.82;;;5.50;99.90;;;;;;5010769;28;20207;-27
2020/12/24 08:44:56;;;;;;;0.85;0.85;;;5.60;99.90;;;;;;5009353;28;20292;-26
2020/12/24 08:47:38;;;;;;;1.20;1.00;;;5.60;99.90;;;;;;4996134;28;20188;-27
2020/12/24 08:50:09;;;;;;;2.55;0.90;;;5.50;99.90;;;;;;4990752;28;20224;-27
2020/12/24 08:52:43;;;;;;;1.02;1.00;;;5.50;99.90;;;;;;4991824;28;20203;-28
2020/12/24 08:55:13;;;;;;;0.80;0.80;;;5.60;99.90;;;;;;5000609;28;20216;-26
2020/12/24 08:57:52;;;;;;;2.30;1.00;;;5.60;99.90;;;;;;5008922;28;20237;-27
2020/12/24 09:00:26;;;;;;;1.65;0.90;;;5.60;99.90;;;;;;4991524;28;20191;-26
2020/12/24 09:02:57;;;;;;;1.15;1.13;;;5.60;99.90;;;;;;4990900;28;20228;-27
2020/12/24 09:05:28;;;;;;;1.10;1.00;;;5.70;99.90;;;;;;4999113;28;20187;-27
2020/12/24 09:07:58;;;;;;;2.03;1.30;;;5.60;99.90;;;;;;5010229;28;20665;-27
2020/12/24 09:10:29;;;;;;;2.75;1.20;;;5.60;99.90;;;;;;5007137;28;20222;-27
2020/12/24 09:13:01;;;;;;;2.28;1.30;;;5.60;99.90;;;;;;5009760;28;20206;-27
2020/12/24 09:15:31;;;;;;;1.20;1.10;;;5.60;99.90;;;;;;5003759;28;20199;-27
2020/12/24 09:18:07;;;;;;;2.25;1.10;;;5.60;99.90;;;;;;4990827;28;20192;-27
2020/12/24 09:20:37;;;;;;;1.40;1.30;;;5.60;99.90;;;;;;5004033;28;20302;-26
2020/12/24 09:23:11;;;;;;;3.75;1.05;;;5.60;99.90;;;;;;5010010;28;20215;-27
2020/12/24 09:25:42;;;;;;;1.15;1.08;;;5.60;99.90;;;;;;5009329;28;20199;-27
2020/12/24 09:28:29;;;;;;;2.28;1.35;;;5.60;99.90;;;;;;5009063;28;20199;-27
2020/12/24 09:31:01;;;;;;;1.85;1.50;;;5.50;99.90;;;;;;4990298;28;20687;-27
2020/12/24 09:33:33;;;;;;;1.10;0.90;;;5.50;99.90;;;;;;4990310;28;20591;-27
2020/12/24 09:36:17;;;;;;;0.90;0.90;;;5.50;99.90;;;;;;4990503;28;20675;-27
2020/12/24 09:38:47;;;;;;;1.77;1.27;;;5.50;99.90;;;;;;5006500;28;20198;-27
2020/12/24 09:41:17;;;;;;;1.48;1.35;;;5.40;99.90;;;;;;4989722;28;20211;-27
2020/12/24 09:43:47;;;;;;;2.05;1.40;;;5.40;99.90;;;;;;4989840;28;20222;-27
2020/12/24 09:46:18;;;;;;;1.23;1.13;;;5.50;99.90;;;;;;4990393;28;20204;-27
2020/12/24 09:48:50;;;;;;;1.23;1.13;;;5.50;99.90;;;;;;4990017;28;20214;-27
2020/12/24 09:51:20;;;;;;;2.00;1.33;;;5.50;99.90;;;;;;4990472;28;20188;-27
2020/12/24 09:53:50;;;;;;;2.55;1.25;;;5.50;99.90;;;;;;4990184;28;20691;-27
2020/12/24 09:56:20;;;;;;;1.67;1.25;;;5.50;99.90;;;;;;4993209;28;20222;-26
2020/12/24 09:58:50;;;;;;;2.95;2.20;;;5.40;99.90;;;;;;4993727;28;20335;-26
2020/12/24 10:01:21;;;;;;;1.92;1.10;;;5.40;99.90;;;;;;4993913;28;20533;-26
2020/12/24 10:03:52;;;;;;;1.90;1.27;;;5.40;99.90;;;;;;4994364;28;20254;-27
2020/12/24 10:06:22;;;;;;;1.45;1.35;;;5.30;99.90;;;;;;5003469;28;20195;-27
2020/12/24 10:08:53;;;;;;;1.38;1.27;;;5.30;99.90;;;;;;5013517;28;20214;-27
2020/12/24 10:11:23;;;;;;;1.80;1.70;;;5.30;99.90;;;;;;5013025;28;20564;-27
2020/12/24 10:13:53;;;;;;;2.45;1.80;;;5.40;99.90;;;;;;5012666;28;20257;-27
2020/12/24 10:16:29;;;;;;;1.50;1.40;;;5.30;99.90;;;;;;5013697;28;20254;-27
2020/12/24 10:19:01;;;;;;;2.10;1.40;;;5.30;99.90;;;;;;5013093;28;20199;-27
2020/12/24 10:21:31;;;;;;;2.58;1.10;;;5.20;99.90;;;;;;5008732;28;20565;-27
2020/12/24 10:24:15;;;;;;;1.85;1.15;;;5.20;99.90;;;;;;5006228;28;20198;-27
2020/12/24 10:26:46;;;;;;;5.88;2.25;;;5.20;99.90;;;;;;5012461;28;20199;-28
2020/12/24 10:29:16;;;;;;;1.90;1.52;;;5.20;99.90;;;;;;5012270;28;20222;-27
2020/12/24 10:31:46;;;;;;;2.15;2.00;;;5.20;99.90;;;;;;5013155;28;20289;-27
2020/12/24 10:34:17;;;;;;;2.80;2.60;;;5.20;99.90;;;;;;5012776;28;20236;-26
2020/12/24 10:36:49;;;;;;;2.95;2.00;;;5.30;99.90;;;;;;5008375;28;20561;-27
2020/12/24 10:39:19;;;;;;;2.08;1.30;;;5.20;99.90;;;;;;5007974;28;20253;-27
2020/12/24 10:41:50;;;;;;;1.65;1.38;;;5.20;99.90;;;;;;5006456;28;20216;-26
2020/12/24 10:44:21;;;;;;;1.73;1.30;;;5.20;99.90;;;;;;4997131;28;20218;-27
2020/12/24 10:46:55;;;;;;;2.95;1.50;;;5.20;99.90;;;;;;5013464;28;20222;-27
2020/12/24 10:49:28;;;;;;;1.70;1.60;;;5.20;99.90;;;;;;5012318;28;20281;-26
2020/12/24 10:51:58;;;;;;;2.65;1.67;;;5.10;99.90;;;;;;5011811;28;20191;-26
2020/12/24 10:54:29;;;;;;;1.50;1.40;;;5.10;99.90;;;;;;5001651;28;20245;-27
2020/12/24 10:56:59;;;;;;;2.90;2.20;;;5.10;99.90;;;;;;4992782;28;20226;-26
2020/12/24 10:59:29;;;;;;;4.07;1.75;;;5.00;99.90;;;;;;5009926;28;20551;-27
2020/12/24 11:02:02;;;;;;;1.50;1.38;;;5.00;99.90;;;;;;5009888;28;20549;-27
2020/12/24 11:04:33;;;;;;;2.40;2.08;;;5.00;99.90;;;;;;5004379;28;20207;-26
2020/12/24 11:07:03;;;;;;;1.58;1.45;;;4.90;99.90;;;;;;5000523;28;20245;-27
2020/12/24 11:09:34;;;;;;;5.43;1.83;;;5.00;99.90;;;;;;5005559;28;20184;-26
2020/12/24 11:12:04;;;;;;;5.50;1.58;;;5.00;99.90;;;;;;4996041;28;20236;-26
2020/12/24 11:14:34;;;;;;;1.70;1.60;;;4.90;99.90;;;;;;5004687;28;20234;-26
2020/12/24 11:17:05;;;;;;;2.28;1.70;;;4.90;99.90;;;;;;5012043;28;20192;-26
2020/12/24 11:19:36;;;;;;;2.85;2.15;;;4.90;99.90;;;;;;5011846;28;20203;-27
2020/12/24 11:22:07;;;;;;;1.38;1.20;;;4.80;99.90;;;;;;5012219;28;20191;-27
2020/12/24 11:24:37;;;;;;;4.15;1.52;;;4.80;99.90;;;;;;5011430;28;20207;-26
2020/12/24 11:27:07;;;;;;;2.70;1.42;;;4.80;99.90;;;;;;5012136;28;20218;-26
2020/12/24 11:29:37;;;;;;;1.50;1.30;;;4.80;99.90;;;;;;5011449;28;20219;-27
2020/12/24 11:32:07;;;;;;;2.63;1.50;;;4.90;99.90;;;;;;5011741;28;20207;-27
2020/12/24 11:34:42;;;;;;;3.63;1.48;;;4.80;99.90;;;;;;5011977;28;20721;-26
2020/12/24 11:37:12;;;;;;;2.03;1.27;;;4.80;99.90;;;;;;5011438;28;20199;-26
2020/12/24 11:39:42;;;;;;;3.20;1.88;;;4.80;99.90;;;;;;5011549;28;20307;-26
2020/12/24 11:42:14;;;;;;;3.35;1.40;;;4.80;99.90;;;;;;5011798;28;20198;-26
2020/12/24 11:44:44;;;;;;;2.70;1.70;;;4.80;99.90;;;;;;5011464;28;20487;-27
2020/12/24 11:47:14;;;;;;;1.67;1.35;;;4.80;99.90;;;;;;5011859;28;20207;-27
2020/12/24 11:49:45;;;;;;;1.20;1.10;;;4.70;99.90;;;;;;5011708;28;20277;-27
2020/12/24 11:52:15;;;;;;;2.38;1.50;;;4.80;99.90;;;;;;5011849;28;20222;-26
2020/12/24 11:54:46;;;;;;;2.40;1.67;;;4.70;99.90;;;;;;4998029;28;20318;-27
2020/12/24 11:57:16;;;;;;;2.10;1.30;;;4.70;99.90;;;;;;5011425;28;20559;-27
2020/12/24 11:59:46;;;;;;;1.17;1.08;;;4.70;99.90;;;;;;5011001;28;20214;-27
2020/12/24 12:02:16;;;;;;;1.20;1.10;;;4.70;99.90;;;;;;5011658;28;20207;-27
2020/12/24 12:04:47;;;;;;;1.70;1.60;;;4.80;99.90;;;;;;5011403;28;20322;-27
2020/12/24 12:07:18;;;;;;;1.77;1.40;;;4.70;99.90;;;;;;5006683;28;20196;-27
2020/12/24 12:09:48;;;;;;;2.65;1.35;;;4.70;99.90;;;;;;4992312;28;20250;-27
2020/12/24 12:12:18;;;;;;;3.42;1.50;;;4.70;99.90;;;;;;5010687;28;20227;-27
2020/12/24 12:14:51;;;;;;;3.22;1.20;;;4.70;99.90;;;;;;4992440;28;20556;-27
2020/12/24 12:17:22;;;;;;;3.72;1.23;;;4.60;99.90;;;;;;4995480;28;20196;-27
2020/12/24 12:19:53;;;;;;;2.45;1.13;;;4.50;99.90;;;;;;4990486;28;20195;-28
2020/12/24 12:22:23;;;;;;;1.45;1.35;;;4.50;99.90;;;;;;4998777;28;20202;-28
2020/12/24 12:24:53;;;;;;;1.35;1.13;;;4.40;99.90;;;;;;5010635;28;20207;-27
2020/12/24 12:27:24;;;;;;;3.85;1.40;;;4.30;99.90;;;;;;5008867;28;20184;-27
2020/12/24 12:29:54;;;;;;;2.40;1.90;;;4.20;99.90;;;;;;5011056;28;20199;-27
2020/12/24 12:32:24;;;;;;;3.95;2.60;;;4.10;99.90;;;;;;4997578;28;20215;-28
2020/12/24 12:34:56;;;;;;;3.28;2.85;;;4.10;99.90;;;;;;5004961;28;20246;-27
2020/12/24 12:37:26;;;;;;;4.30;2.45;;;4.00;99.90;;;;;;5010737;28;20206;-27
2020/12/24 12:39:56;;;;;;;2.10;2.00;;;4.00;99.90;;;;;;4999389;28;20207;-28
2020/12/24 12:42:26;;;;;;;2.50;2.30;;;4.00;99.90;;;;;;4992496;28;20204;-27
2020/12/24 12:44:56;;;;;;;1.85;1.67;;;3.90;99.90;;;;;;4998249;28;20207;-28
2020/12/24 12:47:26;;;;;;;1.40;1.30;;;3.90;99.90;;;;;;5007674;28;20199;-28
2020/12/24 12:49:58;;;;;;;3.42;1.52;;;3.90;99.90;;;;;;5010852;28;20590;-28
2020/12/24 12:52:30;;;;;;;3.30;1.60;;;4.00;99.90;;;;;;5011214;28;20299;-26
2020/12/24 12:55:00;;;;;;;1.83;1.20;;;4.10;99.90;;;;;;5010183;28;20231;-26
2020/12/24 12:57:34;;;;;;;3.90;1.75;;;4.20;99.90;;;;;;5009859;28;20290;-27
2020/12/24 13:00:10;;;;;;;2.53;1.50;;;4.30;99.90;;;;;;5010733;28;20293;-27
2020/12/24 13:02:40;;;;;;;2.75;1.48;;;4.30;99.90;;;;;;5010744;28;20198;-28
2020/12/24 13:05:12;;;;;;;1.70;1.30;;;4.30;99.90;;;;;;5010392;28;20219;-27
2020/12/24 13:07:42;;;;;;;4.10;1.45;;;4.40;99.90;;;;;;5010171;28;20202;-27
2020/12/24 13:10:12;;;;;;;3.42;1.60;;;4.40;99.90;;;;;;5009544;28;20255;-27
2020/12/24 13:12:42;;;;;;;1.65;1.48;;;4.30;99.90;;;;;;5009190;28;20342;-27
2020/12/24 13:15:12;;;;;;;1.98;1.65;;;4.30;99.90;;;;;;5010191;28;20285;-27
2020/12/24 13:17:42;;;;;;;1.55;1.45;;;4.20;99.90;;;;;;5010134;28;20199;-26
2020/12/24 13:20:14;;;;;;;1.50;1.40;;;4.20;99.90;;;;;;5010564;28;20199;-26
2020/12/24 13:22:46;;;;;;;2.45;1.40;;;4.20;99.90;;;;;;5010109;28;20191;-27
2020/12/24 13:25:16;;;;;;;2.42;1.80;;;4.20;99.90;;;;;;5010394;28;20535;-26